Time;durP1;ratioP1;P1;durP2;ratioP2;P2;SDS_P1;SDS_P2;PMS_P1;PMS_P2;Temp;Humidity;BMP_temperature;BMP_pressure;BME280_temperature;BME280_humidity;BME280_pressure;Samples;Min_cycle;Max_cycle;Signal;HPM_P1;HPM_P2
2023/08/12 00:00:11;;;;;;;7.53;6.72;;;26.50;75.90;27.50;101010.00;;;;5009626;28;20345;-51
2023/08/12 00:02:39;;;;;;;7.63;6.93;;;26.50;75.90;27.50;101013.00;;;;5008834;28;20207;-51
2023/08/12 00:05:05;;;;;;;9.50;8.70;;;26.60;76.10;27.50;101021.00;;;;5008734;28;20187;-50
2023/08/12 00:07:32;;;;;;;8.25;7.55;;;26.50;76.90;27.50;101013.00;;;;5008755;28;20191;-50
2023/08/12 00:09:59;;;;;;;8.20;7.40;;;26.60;76.10;27.50;101016.00;;;;5008443;28;20172;-50
2023/08/12 00:12:25;;;;;;;7.35;6.65;;;26.50;76.00;27.50;101019.00;;;;5008614;28;20654;-50
2023/08/12 00:14:51;;;;;;;7.85;7.07;;;26.50;76.20;27.50;101018.00;;;;5008584;28;20180;-49
2023/08/12 00:17:17;;;;;;;7.88;7.15;;;26.50;76.50;27.50;101022.00;;;;5008579;28;20557;-50
2023/08/12 00:19:42;;;;;;;8.68;7.78;;;26.50;76.60;27.50;101022.00;;;;5008408;28;20198;-51
2023/08/12 00:22:08;;;;;;;9.18;8.30;;;26.50;76.40;27.50;101023.00;;;;5008508;28;20210;-51
2023/08/12 00:24:34;;;;;;;8.43;7.63;;;26.60;76.70;27.40;101025.00;;;;5008861;28;20253;-50
2023/08/12 00:26:59;;;;;;;9.38;8.48;;;26.50;76.40;27.40;101021.00;;;;5008689;28;20210;-51
2023/08/12 00:29:25;;;;;;;8.30;7.60;;;26.50;77.00;27.40;101020.00;;;;5008427;28;20191;-51
2023/08/12 00:31:51;;;;;;;8.30;6.85;;;26.50;77.20;27.40;101009.00;;;;5008484;28;20337;-51
2023/08/12 00:34:17;;;;;;;6.85;6.25;;;26.50;77.10;27.30;101018.00;;;;5008719;28;20205;-51
2023/08/12 00:36:43;;;;;;;7.72;6.75;;;26.50;77.20;27.40;101008.00;;;;5008325;28;20263;-50
2023/08/12 00:39:09;;;;;;;7.30;6.63;;;26.40;77.20;27.40;101017.00;;;;5008948;28;20207;-50
2023/08/12 00:41:34;;;;;;;7.05;6.35;;;26.50;77.30;27.40;101012.00;;;;5008600;28;20214;-50
2023/08/12 00:44:00;;;;;;;8.77;7.95;;;26.50;77.30;27.40;101026.00;;;;5008808;28;20630;-49
2023/08/12 00:46:26;;;;;;;8.55;7.75;;;26.40;76.70;27.30;101025.00;;;;5008970;28;20556;-49
2023/08/12 00:48:51;;;;;;;8.68;7.88;;;26.40;77.40;27.30;101023.00;;;;5007332;28;20241;-50
2023/08/12 00:51:17;;;;;;;7.88;7.18;;;26.40;77.50;27.30;101016.00;;;;5009532;28;20204;-51
2023/08/12 00:53:43;;;;;;;7.18;6.57;;;26.40;77.60;27.20;101009.00;;;;5011364;28;20175;-51
2023/08/12 00:56:09;;;;;;;7.57;6.88;;;26.40;77.70;27.20;101013.00;;;;5011254;28;20186;-51
2023/08/12 00:58:35;;;;;;;7.10;6.25;;;26.40;77.70;27.20;100996.00;;;;5011090;28;20183;-52
2023/08/12 01:01:01;;;;;;;7.82;6.60;;;26.40;77.80;27.20;101005.00;;;;5010868;28;20227;-51
2023/08/12 01:03:26;;;;;;;6.28;5.70;;;26.30;77.70;27.20;101002.00;;;;5012497;28;20179;-51
2023/08/12 01:05:52;;;;;;;7.57;6.68;;;26.30;77.80;27.20;100999.00;;;;5012306;28;20184;-51
2023/08/12 01:08:18;;;;;;;6.90;6.20;;;26.30;77.60;27.20;100993.00;;;;5011064;28;20198;-51
2023/08/12 01:10:52;;;;;;;6.78;6.18;;;26.30;77.50;27.20;100973.00;;;;5011981;28;20204;-51
2023/08/12 01:13:43;;;;;;;6.55;5.95;;;26.30;77.30;27.10;100983.00;;;;5011253;28;20183;-51
2023/08/12 01:16:09;;;;;;;6.93;6.22;;;26.30;77.70;27.10;100979.00;;;;5010961;28;20188;-50
2023/08/12 01:18:35;;;;;;;6.40;5.80;;;26.30;77.70;27.10;100976.00;;;;5010835;28;20207;-49
2023/08/12 01:21:03;;;;;;;6.30;5.70;;;26.30;77.60;27.10;100973.00;;;;5011824;28;20211;-49
2023/08/12 01:23:29;;;;;;;6.60;6.00;;;26.30;77.50;27.10;100973.00;;;;5012039;28;20201;-50
2023/08/12 01:25:55;;;;;;;6.85;6.22;;;26.20;77.20;27.10;100978.00;;;;5011969;28;20658;-50
2023/08/12 01:28:20;;;;;;;5.78;5.28;;;26.20;77.30;27.10;100974.00;;;;5012092;28;20195;-50
2023/08/12 01:30:57;;;;;;;6.10;5.50;;;26.20;77.30;27.00;100964.00;;;;5011433;28;20207;-50
2023/08/12 01:33:46;;;;;;;6.32;5.72;;;26.20;77.50;26.60;100967.00;;;;5010669;28;20183;-50
2023/08/12 01:36:21;;;;;;;5.93;5.43;;;26.20;77.40;27.00;100952.00;;;;5010615;28;20502;-50
2023/08/12 01:38:47;;;;;;;7.10;6.40;;;26.20;77.30;27.00;100938.00;;;;5010626;28;20226;-50
2023/08/12 01:41:13;;;;;;;7.35;6.65;;;26.20;77.20;27.00;100925.00;;;;5010512;28;20199;-50
2023/08/12 01:43:39;;;;;;;6.30;5.70;;;26.10;77.10;26.90;100928.00;;;;5011142;28;20261;-50
2023/08/12 01:46:05;;;;;;;6.15;5.60;;;26.10;77.10;26.90;100921.00;;;;4994708;28;20215;-51
2023/08/12 01:48:31;;;;;;;6.32;5.82;;;26.10;77.20;26.90;100919.00;;;;5010323;28;20200;-50
2023/08/12 01:50:57;;;;;;;6.38;5.82;;;26.10;77.20;26.90;100916.00;;;;5011191;28;20203;-50
2023/08/12 01:53:22;;;;;;;6.70;5.93;;;26.10;77.20;26.90;100918.00;;;;5011595;28;20172;-50
2023/08/12 01:55:49;;;;;;;6.43;5.82;;;26.10;77.20;26.90;100927.00;;;;5011286;28;20523;-50
2023/08/12 01:58:15;;;;;;;6.20;5.60;;;26.00;77.20;26.80;100923.00;;;;5011584;28;20190;-51
2023/08/12 02:00:40;;;;;;;8.88;5.82;;;26.00;77.20;26.80;100921.00;;;;5010862;28;20207;-50
2023/08/12 02:03:06;;;;;;;5.80;5.20;;;26.00;77.30;26.50;100908.00;;;;5009348;28;20199;-49
2023/08/12 02:05:33;;;;;;;6.22;5.63;;;26.00;77.30;26.80;100911.00;;;;5011279;28;20168;-49
2023/08/12 02:07:58;;;;;;;5.57;5.05;;;26.00;77.20;26.80;100914.00;;;;5011186;28;20494;-50
2023/08/12 02:10:24;;;;;;;6.93;5.57;;;26.00;77.20;26.80;100916.00;;;;5010733;28;20200;-50
2023/08/12 02:12:50;;;;;;;5.63;5.13;;;26.00;77.30;26.70;100916.00;;;;5010910;28;20180;-50
2023/08/12 02:15:16;;;;;;;5.65;5.15;;;26.00;77.10;26.70;100909.00;;;;5011071;28;20195;-50
2023/08/12 02:17:41;;;;;;;5.35;4.88;;;25.90;77.10;26.70;100915.00;;;;5016775;28;20183;-50
2023/08/12 02:20:07;;;;;;;5.50;5.00;;;26.00;77.20;26.70;100917.00;;;;5018011;28;20203;-50
2023/08/12 02:22:33;;;;;;;5.00;4.50;;;25.90;77.10;26.70;100908.00;;;;5017124;28;20665;-49
2023/08/12 02:24:59;;;;;;;5.38;4.70;;;25.90;77.00;26.70;100903.00;;;;5011060;28;20181;-50
2023/08/12 02:27:25;;;;;;;5.18;4.55;;;25.90;77.10;26.60;100906.00;;;;5009633;28;20553;-49
2023/08/12 02:29:51;;;;;;;4.60;4.20;;;25.90;77.10;26.60;100901.00;;;;5010653;28;20258;-50
2023/08/12 02:32:17;;;;;;;4.65;4.18;;;25.90;77.40;26.60;100905.00;;;;5010476;28;20336;-50
2023/08/12 02:34:42;;;;;;;5.00;4.50;;;25.90;77.40;26.60;100905.00;;;;5010490;28;20229;-52
2023/08/12 02:37:08;;;;;;;4.85;4.35;;;25.90;77.50;26.60;100896.00;;;;5010611;28;20564;-50
2023/08/12 02:39:35;;;;;;;4.53;4.13;;;25.90;77.50;26.60;100911.00;;;;5010402;28;20650;-50
2023/08/12 02:42:00;;;;;;;4.72;4.30;;;25.90;77.50;26.60;100844.00;;;;5010404;28;20690;-50
2023/08/12 02:44:26;;;;;;;4.85;4.35;;;25.90;77.70;26.60;100905.00;;;;5010400;28;20191;-50
2023/08/12 02:46:52;;;;;;;5.97;4.38;;;25.90;77.50;26.60;100894.00;;;;5010399;28;20237;-50
2023/08/12 02:49:17;;;;;;;4.80;4.30;;;25.80;78.20;26.30;100890.00;;;;5010379;28;20183;-50
2023/08/12 02:51:43;;;;;;;5.38;4.78;;;25.80;77.40;26.50;100901.00;;;;5010248;28;20207;-50
2023/08/12 02:54:09;;;;;;;4.68;4.20;;;25.80;77.60;26.50;100893.00;;;;5010580;28;20175;-50
2023/08/12 02:56:35;;;;;;;4.43;4.03;;;25.80;77.50;26.50;100898.00;;;;5010226;28;20713;-49
2023/08/12 02:59:00;;;;;;;4.40;4.00;;;25.80;77.60;26.50;100880.00;;;;5009854;28;20286;-51
2023/08/12 03:01:27;;;;;;;4.50;4.10;;;25.80;77.60;26.50;100900.00;;;;5010502;28;20775;-51
2023/08/12 03:03:53;;;;;;;4.75;4.32;;;25.80;77.80;26.50;100879.00;;;;5011236;28;20207;-51
2023/08/12 03:06:18;;;;;;;4.38;3.97;;;25.80;78.00;26.50;100884.00;;;;5011363;28;20215;-51
2023/08/12 03:08:44;;;;;;;4.68;4.28;;;25.80;78.00;26.40;100885.00;;;;5011030;28;20186;-50
2023/08/12 03:11:10;;;;;;;4.70;4.30;;;25.80;78.00;26.50;100885.00;;;;5010756;28;20200;-51
2023/08/12 03:13:36;;;;;;;5.15;4.40;;;25.70;77.90;26.40;100887.00;;;;5010854;28;20180;-51
2023/08/12 03:16:01;;;;;;;5.28;4.78;;;25.80;78.00;26.40;100888.00;;;;5010781;28;20175;-51
2023/08/12 03:18:27;;;;;;;4.80;4.35;;;25.70;78.10;26.40;100885.00;;;;5010843;28;20800;-50
2023/08/12 03:20:53;;;;;;;7.28;4.60;;;25.70;78.00;26.40;100882.00;;;;5010556;28;20237;-50
2023/08/12 03:23:18;;;;;;;5.57;4.18;;;25.70;77.90;26.40;100888.00;;;;5003091;28;20229;-48
2023/08/12 03:25:46;;;;;;;4.93;4.35;;;25.70;78.00;26.40;100884.00;;;;5002677;28;20247;-48
2023/08/12 03:28:12;;;;;;;4.50;4.03;;;25.70;77.90;26.30;100880.00;;;;5007199;28;20182;-47
2023/08/12 03:30:38;;;;;;;4.63;4.22;;;25.70;77.90;26.40;100875.00;;;;5010401;28;20200;-46
2023/08/12 03:33:04;;;;;;;4.40;4.00;;;25.70;77.90;26.30;100866.00;;;;5010470;28;20179;-48
2023/08/12 03:35:30;;;;;;;4.60;4.20;;;25.70;77.90;26.30;100873.00;;;;5010648;28;20171;-49
2023/08/12 03:37:55;;;;;;;4.40;4.00;;;25.70;77.90;26.30;100868.00;;;;5010210;28;20230;-48
2023/08/12 03:40:21;;;;;;;6.32;5.22;;;25.60;77.80;26.30;100860.00;;;;5009932;28;20655;-49
2023/08/12 03:42:47;;;;;;;4.78;4.30;;;25.60;78.10;26.30;100859.00;;;;5010584;28;20171;-48
2023/08/12 03:45:12;;;;;;;4.82;4.43;;;25.60;78.20;26.20;100871.00;;;;5010273;28;20168;-48
2023/08/12 03:47:38;;;;;;;4.68;4.28;;;25.60;78.20;26.00;100861.00;;;;5010330;28;20168;-48
2023/08/12 03:50:05;;;;;;;4.55;4.15;;;25.60;78.20;26.20;100853.00;;;;5010108;28;20176;-48
2023/08/12 03:52:31;;;;;;;4.65;4.15;;;25.60;78.20;26.20;100848.00;;;;5010262;28;20558;-48
2023/08/12 03:54:56;;;;;;;4.50;4.10;;;25.60;78.20;26.20;100837.00;;;;5010083;28;20180;-48
2023/08/12 03:57:22;;;;;;;4.43;4.03;;;25.60;78.40;26.20;100827.00;;;;5010373;28;20210;-48
2023/08/12 03:59:48;;;;;;;4.40;4.00;;;25.50;78.40;26.20;100826.00;;;;5009711;28;20203;-48
2023/08/12 04:02:13;;;;;;;4.47;4.07;;;25.50;78.40;26.20;100809.00;;;;5009379;28;20199;-48
2023/08/12 04:04:39;;;;;;;4.88;4.38;;;25.50;78.30;26.20;100812.00;;;;5009633;28;20175;-48
2023/08/12 04:07:05;;;;;;;4.38;3.90;;;25.50;78.40;26.20;100804.00;;;;5010007;28;20622;-48
2023/08/12 04:09:30;;;;;;;4.40;4.00;;;25.50;78.30;26.10;100799.00;;;;5009499;28;20804;-48
2023/08/12 04:11:56;;;;;;;4.35;3.95;;;25.50;78.40;26.10;100798.00;;;;5009612;28;20203;-48
2023/08/12 04:14:22;;;;;;;4.40;4.00;;;25.50;78.50;26.10;100801.00;;;;5009706;28;20176;-48
2023/08/12 04:16:48;;;;;;;4.40;3.75;;;25.50;78.40;26.10;100786.00;;;;5009635;28;20233;-47
2023/08/12 04:19:14;;;;;;;3.95;3.53;;;25.40;78.40;26.10;100787.00;;;;5009232;28;20270;-46
2023/08/12 04:21:39;;;;;;;5.22;4.03;;;25.40;78.30;26.10;100781.00;;;;5009386;28;20611;-48
2023/08/12 04:24:06;;;;;;;4.20;3.65;;;25.40;78.30;26.00;100786.00;;;;5009829;28;20221;-48
2023/08/12 04:26:31;;;;;;;4.50;3.75;;;25.40;78.30;26.00;100792.00;;;;5008133;28;20208;-49
2023/08/12 04:28:57;;;;;;;4.47;4.07;;;25.40;78.30;26.00;100785.00;;;;5009181;28;20245;-48
2023/08/12 04:31:23;;;;;;;4.22;3.70;;;25.40;78.30;26.00;100787.00;;;;5009611;28;20338;-48
2023/08/12 04:33:49;;;;;;;4.35;3.95;;;25.40;78.20;26.00;100777.00;;;;5009551;28;20643;-48
2023/08/12 04:36:15;;;;;;;4.57;3.85;;;25.40;78.20;26.00;100782.00;;;;5008235;28;20577;-48
2023/08/12 04:38:41;;;;;;;3.75;3.45;;;25.30;78.10;25.90;100784.00;;;;5009343;28;20179;-48
2023/08/12 04:41:07;;;;;;;4.15;3.38;;;25.30;78.10;25.90;100774.00;;;;5009122;28;20204;-49
2023/08/12 04:43:33;;;;;;;5.20;3.63;;;25.30;78.20;25.90;100774.00;;;;5009233;28;20183;-47
2023/08/12 04:45:59;;;;;;;5.03;3.83;;;25.30;78.10;25.90;100770.00;;;;5003664;28;20183;-47
2023/08/12 04:48:25;;;;;;;4.57;3.80;;;25.30;78.20;25.90;100773.00;;;;5008749;28;20550;-47
2023/08/12 04:50:50;;;;;;;4.45;4.05;;;25.30;78.20;25.90;100779.00;;;;5008316;28;20203;-48
2023/08/12 04:53:16;;;;;;;4.75;4.30;;;25.20;78.20;25.90;100782.00;;;;5008663;28;20651;-48
2023/08/12 04:55:42;;;;;;;4.15;3.75;;;25.30;78.00;25.90;100782.00;;;;5008743;28;20180;-48
2023/08/12 04:58:08;;;;;;;4.55;3.70;;;25.30;77.70;25.80;100780.00;;;;5008713;28;20253;-47
2023/08/12 05:00:33;;;;;;;5.00;4.18;;;25.30;77.90;25.90;100787.00;;;;5007556;28;20212;-48
2023/08/12 05:02:59;;;;;;;5.18;4.13;;;25.30;78.00;25.80;100788.00;;;;5008603;28;20195;-47
2023/08/12 05:05:26;;;;;;;6.28;4.00;;;25.30;77.70;25.80;100792.00;;;;5008904;28;20180;-48
2023/08/12 05:07:52;;;;;;;4.40;4.00;;;25.30;77.80;25.80;100785.00;;;;5008782;28;20199;-48
2023/08/12 05:10:18;;;;;;;4.30;3.90;;;25.30;77.90;25.80;100780.00;;;;5008629;28;20184;-48
2023/08/12 05:12:44;;;;;;;4.65;4.22;;;25.40;78.10;25.80;100779.00;;;;5008518;28;20238;-48
2023/08/12 05:15:10;;;;;;;5.70;4.20;;;25.40;78.20;25.80;100785.00;;;;5008936;28;20207;-48
2023/08/12 05:17:36;;;;;;;5.45;3.90;;;25.30;78.20;25.80;100782.00;;;;5008961;28;20822;-48
2023/08/12 05:20:03;;;;;;;4.47;4.07;;;25.30;78.30;25.70;100773.00;;;;5008665;28;20212;-48
2023/08/12 05:22:28;;;;;;;4.20;3.80;;;25.30;78.50;25.70;100788.00;;;;5008627;28;20168;-48
2023/08/12 05:24:54;;;;;;;6.82;4.45;;;25.20;78.60;25.70;100789.00;;;;5008545;28;20191;-47
2023/08/12 05:27:20;;;;;;;4.75;4.25;;;25.20;78.70;25.70;100796.00;;;;5009005;28;20186;-48
2023/08/12 05:29:46;;;;;;;4.72;4.10;;;25.20;78.70;25.70;100789.00;;;;5008444;28;20183;-47
2023/08/12 05:32:11;;;;;;;6.35;4.28;;;25.20;78.70;25.70;100784.00;;;;5008603;28;20199;-49
2023/08/12 05:34:37;;;;;;;4.65;3.95;;;25.20;78.90;25.70;100772.00;;;;5013527;28;20211;-48
2023/08/12 05:37:03;;;;;;;4.38;3.60;;;25.10;79.00;25.70;100781.00;;;;5015018;28;20195;-47
2023/08/12 05:39:29;;;;;;;4.60;3.50;;;25.10;79.40;25.60;100774.00;;;;5014029;28;20294;-47
2023/08/12 05:41:54;;;;;;;3.85;3.55;;;25.10;80.00;25.60;100769.00;;;;5012205;28;20278;-47
2023/08/12 05:44:20;;;;;;;3.45;3.15;;;25.00;79.80;25.60;100762.00;;;;5011495;28;20180;-47
2023/08/12 05:46:46;;;;;;;5.53;3.97;;;25.00;79.80;25.60;100771.00;;;;5011779;28;20277;-47
2023/08/12 05:49:12;;;;;;;4.55;3.47;;;25.00;80.00;25.60;100768.00;;;;5012162;28;20191;-47
2023/08/12 05:51:38;;;;;;;3.72;3.42;;;25.00;79.90;25.60;100776.00;;;;5011824;28;20231;-48
2023/08/12 05:54:04;;;;;;;4.97;3.90;;;25.00;80.00;25.60;100775.00;;;;5011897;28;20187;-49
2023/08/12 05:56:30;;;;;;;4.15;3.75;;;25.00;80.00;25.60;100784.00;;;;5012346;28;20180;-48
2023/08/12 05:58:56;;;;;;;3.90;3.60;;;25.00;79.80;25.60;100789.00;;;;5010444;28;20230;-47
2023/08/12 06:01:21;;;;;;;3.80;3.50;;;25.00;80.00;25.60;100779.00;;;;5010729;28;20204;-47
2023/08/12 06:03:47;;;;;;;4.43;4.03;;;25.00;80.00;25.50;100797.00;;;;5011234;28;20582;-48
2023/08/12 06:06:13;;;;;;;5.43;3.85;;;25.00;80.00;25.50;100796.00;;;;5010107;28;20187;-48
2023/08/12 06:08:38;;;;;;;4.43;3.53;;;25.00;80.00;25.50;100803.00;;;;5011806;28;20187;-47
2023/08/12 06:11:04;;;;;;;4.10;3.80;;;25.00;80.00;25.50;100798.00;;;;5011410;28;20223;-47
2023/08/12 06:13:30;;;;;;;4.03;3.70;;;25.10;80.10;25.50;100794.00;;;;5011371;28;20673;-47
2023/08/12 06:15:56;;;;;;;4.13;3.72;;;25.00;80.10;25.50;100794.00;;;;5011598;28;20692;-48
2023/08/12 06:18:22;;;;;;;4.22;3.83;;;25.00;80.20;25.50;100800.00;;;;5011404;28;20553;-47
2023/08/12 06:20:48;;;;;;;4.57;4.10;;;25.00;80.50;25.50;100804.00;;;;5011199;28;20339;-46
2023/08/12 06:23:15;;;;;;;4.47;4.00;;;25.00;80.70;25.50;100804.00;;;;5010748;28;20175;-47
2023/08/12 06:25:42;;;;;;;4.05;3.75;;;24.90;80.80;25.50;100778.00;;;;5011260;28;20191;-47
2023/08/12 06:28:09;;;;;;;4.10;3.70;;;25.00;80.80;25.40;100788.00;;;;5010751;28;20266;-51
2023/08/12 06:30:34;;;;;;;4.03;3.50;;;25.00;80.70;25.40;100779.00;;;;5011056;28;20720;-54
2023/08/12 06:33:00;;;;;;;4.30;3.25;;;24.90;80.80;25.40;100772.00;;;;5010898;28;20180;-53
2023/08/12 06:35:26;;;;;;;3.35;3.05;;;24.90;80.60;25.40;100778.00;;;;5011277;28;20183;-53
2023/08/12 06:37:52;;;;;;;3.65;3.30;;;24.90;80.40;25.40;100758.00;;;;5010873;28;20191;-52
2023/08/12 06:40:17;;;;;;;3.75;3.20;;;24.90;80.10;25.50;100767.00;;;;5010516;28;20206;-52
2023/08/12 06:42:43;;;;;;;4.25;3.25;;;24.90;79.90;25.50;100749.00;;;;5010770;28;20203;-52
2023/08/12 06:45:09;;;;;;;4.53;3.40;;;24.90;79.90;25.50;100757.00;;;;5010953;28;20180;-53
2023/08/12 06:47:35;;;;;;;3.45;3.15;;;24.90;79.60;25.50;100750.00;;;;5011249;28;20246;-53
2023/08/12 06:50:01;;;;;;;4.15;3.17;;;24.90;79.50;25.50;100744.00;;;;5010541;28;20662;-53
2023/08/12 06:52:27;;;;;;;3.83;3.00;;;24.90;79.40;25.50;100746.00;;;;5010296;28;20204;-53
2023/08/12 06:54:53;;;;;;;3.45;3.13;;;24.90;79.20;25.50;100746.00;;;;5010360;28;20253;-53
2023/08/12 06:57:19;;;;;;;3.58;3.28;;;24.90;79.00;25.50;100743.00;;;;5010711;28;20238;-53
2023/08/12 06:59:44;;;;;;;4.05;3.00;;;24.90;79.00;25.50;100740.00;;;;5010400;28;20581;-53
2023/08/12 07:02:10;;;;;;;3.53;3.10;;;24.90;78.80;25.50;100728.00;;;;5010316;28;20196;-53
2023/08/12 07:04:36;;;;;;;3.25;2.95;;;24.90;78.80;25.50;100725.00;;;;5010580;28;20596;-52
2023/08/12 07:07:02;;;;;;;3.40;3.10;;;24.90;78.80;25.50;100728.00;;;;5010729;28;20175;-52
2023/08/12 07:09:27;;;;;;;3.22;2.92;;;24.90;78.60;25.50;100724.00;;;;5010132;28;20188;-53
2023/08/12 07:11:53;;;;;;;2.88;2.67;;;24.90;78.60;25.50;100721.00;;;;5008748;28;20290;-52
2023/08/12 07:14:19;;;;;;;3.00;2.80;;;24.90;78.40;25.50;100723.00;;;;5009837;28;20184;-52
2023/08/12 07:16:44;;;;;;;3.22;2.95;;;24.80;78.20;25.50;100732.00;;;;5010693;28;20179;-52
2023/08/12 07:19:11;;;;;;;2.97;2.78;;;24.90;78.10;25.50;100732.00;;;;5009382;28;20235;-52
2023/08/12 07:21:36;;;;;;;3.05;2.85;;;24.90;78.00;25.50;100732.00;;;;5005631;28;20231;-52
2023/08/12 07:24:02;;;;;;;3.05;2.50;;;24.90;77.90;25.50;100727.00;;;;5009695;28;20835;-52
2023/08/12 07:26:28;;;;;;;2.92;2.70;;;24.90;77.80;25.50;100733.00;;;;5010274;28;20191;-53
2023/08/12 07:28:54;;;;;;;3.22;3.03;;;24.90;77.70;25.50;100721.00;;;;5010135;28;20179;-52
2023/08/12 07:31:19;;;;;;;3.00;2.80;;;24.90;77.60;25.50;100755.00;;;;5000860;28;20215;-52
2023/08/12 07:33:45;;;;;;;3.22;2.92;;;24.90;77.60;25.50;100758.00;;;;5005752;28;20184;-52
2023/08/12 07:36:11;;;;;;;2.92;2.67;;;24.90;77.20;25.60;100743.00;;;;5008570;28;20182;-52
2023/08/12 07:38:36;;;;;;;3.00;2.80;;;24.90;77.30;25.60;100761.00;;;;4975524;28;20267;-52
2023/08/12 07:41:02;;;;;;;2.92;2.63;;;24.90;77.20;25.60;100766.00;;;;5009046;28;20238;-52
2023/08/12 07:43:28;;;;;;;3.08;2.70;;;25.00;77.40;25.60;100771.00;;;;5009587;28;20183;-52
2023/08/12 07:45:54;;;;;;;3.10;2.80;;;25.00;77.40;25.60;100768.00;;;;5009249;28;20187;-52
2023/08/12 07:48:20;;;;;;;2.90;2.70;;;25.00;77.40;25.60;100781.00;;;;5009156;28;20255;-52
2023/08/12 07:50:49;;;;;;;3.33;3.10;;;25.00;77.60;25.60;100771.00;;;;5008406;28;20199;-52
2023/08/12 07:53:15;;;;;;;2.92;2.72;;;25.00;77.60;25.60;100755.00;;;;5009197;28;20207;-52
2023/08/12 07:55:42;;;;;;;2.97;2.78;;;25.00;77.70;25.60;100736.00;;;;5009239;28;20665;-53
2023/08/12 07:58:08;;;;;;;2.90;2.70;;;25.00;77.90;25.60;100741.00;;;;5009730;28;20184;-53
2023/08/12 08:00:34;;;;;;;3.00;2.80;;;25.00;77.80;25.60;100742.00;;;;5010081;28;20215;-53
2023/08/12 08:02:59;;;;;;;3.17;2.97;;;25.00;77.70;25.60;100746.00;;;;5008358;28;20545;-52
2023/08/12 08:05:25;;;;;;;3.05;2.85;;;25.00;77.80;25.60;100750.00;;;;5009229;28;20263;-52
2023/08/12 08:07:51;;;;;;;4.28;2.72;;;25.00;77.70;25.60;100739.00;;;;5008409;28;20242;-52
2023/08/12 08:10:16;;;;;;;2.70;2.50;;;25.00;77.50;25.60;100746.00;;;;5008590;28;20183;-52
2023/08/12 08:12:42;;;;;;;3.13;2.75;;;25.00;77.80;25.60;100742.00;;;;5008180;28;20295;-52
2023/08/12 08:15:08;;;;;;;2.88;2.67;;;25.00;77.30;25.60;100742.00;;;;5008848;28;20233;-53
2023/08/12 08:17:34;;;;;;;4.35;2.60;;;25.00;77.50;25.50;100740.00;;;;5004951;28;20187;-52
2023/08/12 08:20:01;;;;;;;2.95;2.75;;;25.00;77.30;25.60;100738.00;;;;5007391;28;20254;-53
2023/08/12 08:22:27;;;;;;;2.90;2.70;;;25.00;78.30;25.60;100727.00;;;;5007656;28;20229;-52
2023/08/12 08:24:52;;;;;;;3.03;2.58;;;25.10;77.40;25.60;100737.00;;;;5007517;28;20551;-51
2023/08/12 08:27:18;;;;;;;2.80;2.60;;;25.00;77.30;25.60;100742.00;;;;5008134;28;20524;-52
2023/08/12 08:29:44;;;;;;;2.95;2.65;;;25.00;77.30;25.60;100731.00;;;;5008956;28;20653;-52
2023/08/12 08:32:10;;;;;;;2.42;2.25;;;25.00;77.40;25.60;100724.00;;;;5008903;28;20552;-52
2023/08/12 08:34:35;;;;;;;4.07;2.90;;;25.00;77.40;25.60;100717.00;;;;5008431;28;20588;-52
2023/08/12 08:37:01;;;;;;;2.80;2.60;;;25.00;77.40;25.60;100726.00;;;;5008746;28;20205;-52
2023/08/12 08:39:27;;;;;;;2.80;2.60;;;25.00;77.40;25.60;100730.00;;;;5009220;28;20242;-52
2023/08/12 08:41:54;;;;;;;3.03;2.83;;;25.00;77.30;25.60;100739.00;;;;5007312;28;20207;-52
2023/08/12 08:44:21;;;;;;;2.78;2.58;;;25.00;77.40;25.60;100742.00;;;;5007738;28;20188;-52
2023/08/12 08:46:49;;;;;;;2.97;2.75;;;25.10;77.50;25.60;100744.00;;;;4991226;28;20176;-52
2023/08/12 08:49:16;;;;;;;2.95;2.75;;;25.10;77.40;25.60;100742.00;;;;4991658;28;20270;-52
2023/08/12 08:51:41;;;;;;;2.85;2.60;;;25.10;77.40;25.60;100752.00;;;;5007439;28;20199;-53
2023/08/12 08:54:07;;;;;;;2.80;2.60;;;25.00;77.30;25.60;100765.00;;;;4991544;28;20175;-52
2023/08/12 08:56:33;;;;;;;2.75;2.50;;;25.10;77.30;25.60;100754.00;;;;5008892;28;20179;-52
2023/08/12 08:58:59;;;;;;;3.00;2.70;;;25.00;77.30;25.60;100760.00;;;;4991095;28;20230;-52
2023/08/12 09:01:27;;;;;;;3.13;2.83;;;25.00;77.00;25.60;100754.00;;;;5008916;28;20195;-52
2023/08/12 09:03:53;;;;;;;3.13;2.90;;;25.00;77.60;25.60;100747.00;;;;5008012;28;20180;-53
2023/08/12 09:06:24;;;;;;;3.45;2.78;;;24.90;78.20;25.60;100751.00;;;;4991126;28;20191;-52
2023/08/12 09:08:52;;;;;;;2.83;2.63;;;24.90;79.00;25.30;100743.00;;;;4989136;28;20537;-52
2023/08/12 09:11:17;;;;;;;2.85;2.65;;;24.90;79.20;25.50;100736.00;;;;5008322;28;20200;-52
2023/08/12 09:13:43;;;;;;;3.42;3.10;;;25.00;79.80;25.50;100741.00;;;;5011803;28;20313;-52
2023/08/12 09:16:09;;;;;;;3.92;3.00;;;24.90;79.90;25.50;100753.00;;;;5011719;28;20222;-52
2023/08/12 09:18:35;;;;;;;3.55;2.80;;;24.90;80.50;25.50;100740.00;;;;5008048;28;20739;-52
2023/08/12 09:21:01;;;;;;;3.45;2.60;;;24.90;80.40;25.50;100753.00;;;;5009968;28;20273;-52
2023/08/12 09:23:27;;;;;;;3.35;2.90;;;25.00;80.50;25.50;100742.00;;;;5010380;28;20290;-52
2023/08/12 09:25:53;;;;;;;3.00;2.70;;;24.90;80.40;25.50;100752.00;;;;5008155;28;20186;-52
2023/08/12 09:28:18;;;;;;;3.50;2.95;;;24.90;80.70;25.50;100754.00;;;;5010002;28;20187;-53
2023/08/12 09:30:52;;;;;;;5.43;2.70;;;24.80;80.50;25.50;100757.00;;;;5008078;28;20226;-54
2023/08/12 09:33:23;;;;;;;3.13;2.83;;;24.80;81.60;25.50;100762.00;;;;5009911;28;20191;-54
2023/08/12 09:35:49;;;;;;;3.00;2.75;;;24.80;80.90;25.40;100767.00;;;;4993199;28;20192;-55
2023/08/12 09:38:15;;;;;;;3.10;2.80;;;24.80;81.50;25.40;100764.00;;;;5009840;28;20322;-54
2023/08/12 09:40:41;;;;;;;2.90;2.60;;;24.80;81.50;25.40;100752.00;;;;5008418;28;20693;-52
2023/08/12 09:43:07;;;;;;;3.20;2.70;;;24.80;81.30;25.40;100757.00;;;;5010276;28;20245;-53
2023/08/12 09:45:34;;;;;;;3.10;2.80;;;24.80;81.60;25.40;100762.00;;;;5009397;28;20180;-55
2023/08/12 09:48:00;;;;;;;3.22;2.67;;;24.80;81.60;25.40;100754.00;;;;5009464;28;20267;-54
2023/08/12 09:50:26;;;;;;;2.90;2.70;;;24.80;81.50;25.40;100752.00;;;;5008486;28;20291;-53
2023/08/12 09:52:53;;;;;;;2.70;2.50;;;24.80;81.60;25.40;100754.00;;;;5009972;28;20270;-54
2023/08/12 09:55:20;;;;;;;5.60;2.80;;;24.90;81.70;25.40;100757.00;;;;5009066;28;20191;-54
2023/08/12 09:57:52;;;;;;;3.55;2.78;;;24.80;81.70;25.40;100749.00;;;;5010206;28;20230;-54
2023/08/12 10:00:18;;;;;;;3.13;2.80;;;24.80;81.80;25.40;100752.00;;;;5009636;28;20203;-53
2023/08/12 10:02:48;;;;;;;4.35;3.00;;;24.80;82.70;25.40;100755.00;;;;5009372;28;20680;-53
2023/08/12 10:05:28;;;;;;;4.32;3.08;;;24.90;82.50;25.50;100744.00;;;;5009483;28;20551;-53
2023/08/12 10:07:54;;;;;;;3.40;2.75;;;24.90;82.20;25.50;100750.00;;;;5010073;28;20575;-53
2023/08/12 10:10:22;;;;;;;3.40;2.70;;;24.90;81.90;25.50;100747.00;;;;5008263;28;20330;-53
2023/08/12 10:12:48;;;;;;;3.55;2.55;;;24.90;82.10;25.50;100754.00;;;;5009329;28;20280;-53
2023/08/12 10:15:13;;;;;;;3.15;2.83;;;24.90;82.10;25.50;100734.00;;;;5008362;28;20658;-52
2023/08/12 10:17:41;;;;;;;2.88;2.67;;;24.90;81.90;25.50;100743.00;;;;4991665;28;20214;-54
2023/08/12 10:20:08;;;;;;;2.70;2.50;;;24.90;82.10;25.50;100745.00;;;;5009304;28;20207;-53
2023/08/12 10:22:34;;;;;;;3.40;2.92;;;24.90;81.90;25.50;100750.00;;;;5010642;28;20776;-54
2023/08/12 10:25:02;;;;;;;2.97;2.78;;;24.90;82.30;25.50;100748.00;;;;5007190;28;20210;-55
2023/08/12 10:27:28;;;;;;;4.40;2.70;;;24.90;82.40;25.50;100743.00;;;;5008220;28;20190;-53
2023/08/12 10:29:57;;;;;;;2.80;2.60;;;24.90;82.50;25.50;100741.00;;;;5008643;28;20179;-53
2023/08/12 10:32:23;;;;;;;3.08;2.70;;;24.90;82.50;25.50;100734.00;;;;5008524;28;20211;-52
2023/08/12 10:34:59;;;;;;;3.65;2.90;;;24.90;82.50;25.50;100738.00;;;;4991301;28;20233;-52
2023/08/12 10:37:25;;;;;;;3.00;2.70;;;24.90;82.00;25.50;100735.00;;;;5008744;28;20237;-53
2023/08/12 10:39:54;;;;;;;2.90;2.60;;;24.90;82.50;25.50;100725.00;;;;5010624;28;20471;-53
2023/08/12 10:42:46;;;;;;;2.97;2.70;;;24.90;82.50;25.50;100726.00;;;;5010838;28;20230;-53